createdAt,value
2019-01-21T00:04:05.114Z,18.90
2019-01-21T00:09:08.776Z,19.47
2019-01-21T00:14:12.205Z,20.83
2019-01-21T00:19:15.642Z,21.53
2019-01-21T00:24:19.242Z,20.20
2019-01-21T00:29:22.672Z,18.47
2019-01-21T00:34:26.103Z,18.47
2019-01-21T00:39:29.607Z,18.27
2019-01-21T00:44:33.194Z,17.97
2019-01-21T00:49:36.631Z,17.50
2019-01-21T00:54:40.068Z,17.47
2019-01-21T00:59:43.512Z,18.87
2019-01-21T01:04:46.966Z,18.70
2019-01-21T01:09:50.405Z,18.57
2019-01-21T01:14:53.837Z,18.43
2019-01-21T01:19:57.279Z,17.20
2019-01-21T01:25:01.032Z,17.50
2019-01-21T01:30:07.984Z,17.93
2019-01-21T01:35:13.239Z,16.77
2019-01-21T01:40:17.804Z,18.30
2019-01-21T01:45:22.967Z,16.77
2019-01-21T01:50:26.771Z,14.37
2019-01-21T01:55:30.341Z,17.50
2019-01-21T02:00:34.472Z,18.53
2019-01-21T02:05:37.929Z,17.27
2019-01-21T02:10:41.384Z,14.63
2019-01-21T02:15:44.822Z,18.07
2019-01-21T02:20:50.642Z,19.73
2019-01-21T02:25:54.132Z,17.57
2019-01-21T02:31:18.505Z,17.10
2019-01-21T02:36:36.593Z,16.63
2019-01-21T02:41:41.074Z,16.70
2019-01-21T02:46:53.354Z,16.23
2019-01-21T02:52:22.342Z,18.63
2019-01-21T02:57:51.240Z,17.57
2019-01-21T03:03:01.049Z,18.80
2019-01-21T03:08:16.477Z,16.90
2019-01-21T03:13:25.840Z,16.23
2019-01-21T03:18:38.133Z,16.40
2019-01-21T03:23:50.429Z,17.80
2019-01-21T03:29:22.447Z,17.60
2019-01-21T03:34:40.892Z,16.43
2019-01-21T03:39:56.238Z,18.30
2019-01-21T03:45:31.241Z,18.27
2019-01-21T03:50:37.754Z,18.13
2019-01-21T03:55:41.315Z,17.80
2019-01-21T04:00:51.017Z,16.47
2019-01-21T04:06:06.369Z,19.70
2019-01-21T04:11:18.364Z,18.53
2019-01-21T04:16:47.305Z,17.63
2019-01-21T04:22:26.592Z,19.63
2019-01-21T04:27:44.713Z,18.80
2019-01-21T04:32:56.725Z,16.93
2019-01-21T04:38:22.520Z,17.50
2019-01-21T04:43:31.670Z,17.53
2019-01-21T04:49:03.562Z,18.70
2019-01-21T04:54:15.747Z,18.43
2019-01-21T04:59:41.479Z,19.57
2019-01-21T05:05:02.798Z,18.10
2019-01-21T05:10:12.203Z,18.33
2019-01-21T05:15:21.188Z,19.60
2019-01-21T05:20:27.669Z,18.57
2019-01-21T05:25:36.915Z,18.67
2019-01-21T05:30:49.086Z,18.67
2019-01-21T05:36:20.764Z,19.97
2019-01-21T05:41:35.421Z,17.90
2019-01-21T05:47:14.992Z,21.07
2019-01-21T05:52:37.824Z,19.47
2019-01-21T05:58:03.731Z,19.83
2019-01-21T06:03:35.705Z,19.70
2019-01-21T06:08:47.866Z,20.33
2019-01-21T06:14:06.090Z,20.17
2019-01-21T06:19:12.562Z,17.97
2019-01-21T06:24:24.971Z,19.40
2019-01-21T06:29:34.129Z,20.13
2019-01-21T06:34:43.335Z,23.73
2019-01-21T06:39:58.421Z,21.33
2019-01-21T06:45:25.923Z,21.17
2019-01-21T06:50:38.168Z,24.63
2019-01-21T06:55:56.252Z,21.73
2019-01-21T07:01:36.893Z,24.20
2019-01-21T07:07:11.693Z,24.37
2019-01-21T07:12:39.037Z,22.97
2019-01-21T07:17:54.460Z,24.47
2019-01-21T07:23:15.656Z,23.73
2019-01-21T07:28:41.316Z,21.10
2019-01-21T07:33:56.287Z,24.03
2019-01-21T07:39:24.887Z,24.30
2019-01-21T07:44:43.150Z,23.70
2019-01-21T07:50:10.135Z,23.83
2019-01-21T07:55:16.621Z,25.57
2019-01-21T08:00:42.535Z,26.63
2019-01-21T08:06:03.118Z,26.50
2019-01-21T08:11:23.969Z,32.17
2019-01-21T08:16:33.118Z,33.13
2019-01-21T08:22:06.333Z,29.07
2019-01-21T08:27:15.475Z,32.43
2019-01-21T08:32:24.870Z,28.87
2019-01-21T08:37:37.265Z,27.13
2019-01-21T08:43:01.594Z,31.63
2019-01-21T08:48:08.075Z,31.57
2019-01-21T08:53:29.206Z,29.93
2019-01-21T08:58:53.423Z,29.63
2019-01-21T09:04:02.813Z,34.47
2019-01-21T09:09:24.151Z,31.37
2019-01-21T09:14:30.634Z,31.53
2019-01-21T09:19:45.837Z,32.13
2019-01-21T09:25:03.956Z,35.07
2019-01-21T09:30:13.351Z,34.07
2019-01-21T09:35:31.485Z,28.23
2019-01-21T09:40:49.599Z,31.70
2019-01-21T09:45:58.735Z,33.80
2019-01-21T09:51:04.672Z,33.03
2019-01-21T09:56:08.188Z,33.13
2019-01-21T10:01:11.922Z,31.43
2019-01-21T10:06:16.484Z,30.47
2019-01-21T10:11:37.696Z,29.83
2019-01-21T10:16:46.839Z,30.70
2019-01-21T10:22:13.852Z,30.17
2019-01-21T10:27:53.409Z,31.27
2019-01-21T10:33:17.037Z,32.33
2019-01-21T10:38:26.158Z,31.17
2019-01-21T10:43:35.087Z,31.90
2019-01-21T10:48:53.558Z,32.30
2019-01-21T10:54:02.729Z,34.20
2019-01-21T10:59:09.205Z,31.77
2019-01-21T11:04:36.546Z,32.20
2019-01-21T11:09:45.771Z,33.27
2019-01-21T11:14:58.001Z,34.13
2019-01-21T11:20:10.361Z,33.67
2019-01-21T11:25:42.310Z,31.97
2019-01-21T11:31:00.679Z,33.97
2019-01-21T11:36:39.598Z,33.67
2019-01-21T11:42:00.294Z,33.00
2019-01-21T11:47:06.769Z,33.30
2019-01-21T11:52:24.987Z,33.07
2019-01-21T11:57:34.239Z,32.20
2019-01-21T12:02:43.806Z,32.47
2019-01-21T12:08:04.951Z,30.13
2019-01-21T12:13:34.558Z,29.73
2019-01-21T12:18:49.994Z,29.23
2019-01-21T12:24:02.179Z,30.40
2019-01-21T12:29:14.206Z,27.80
2019-01-21T12:34:39.945Z,31.37
2019-01-21T12:40:01.027Z,28.13
2019-01-21T12:45:16.298Z,29.17
2019-01-21T12:50:52.188Z,27.93
2019-01-21T12:56:31.805Z,25.93
2019-01-21T13:01:44.233Z,27.20
2019-01-21T13:06:59.507Z,27.57
2019-01-21T13:12:08.667Z,24.97
2019-01-21T13:17:17.911Z,26.50
2019-01-21T13:22:33.316Z,28.00
2019-01-21T13:28:03.556Z,27.50
2019-01-21T13:33:24.421Z,24.43
2019-01-21T13:38:36.506Z,22.60
2019-01-21T13:43:43.052Z,24.27
2019-01-21T13:48:49.538Z,21.67
2019-01-21T13:54:13.677Z,22.97
2019-01-21T13:59:42.310Z,23.63
2019-01-21T14:04:54.917Z,24.03
2019-01-21T14:10:10.235Z,24.23
2019-01-21T14:15:25.235Z,25.30
2019-01-21T14:20:31.768Z,25.43
2019-01-21T14:25:42.011Z,26.03
2019-01-21T14:30:57.531Z,24.43
2019-01-21T14:36:25.037Z,25.03
2019-01-21T14:41:34.174Z,25.47
2019-01-21T14:47:01.093Z,24.20
2019-01-21T14:52:24.089Z,25.13
2019-01-21T14:57:36.395Z,25.77
2019-01-21T15:02:59.073Z,25.20
2019-01-21T15:08:05.563Z,24.83
2019-01-21T15:13:11.996Z,25.87
2019-01-21T15:18:36.385Z,22.53
2019-01-21T15:23:45.982Z,24.47
2019-01-21T15:28:55.063Z,24.47
2019-01-21T15:34:01.674Z,26.13
2019-01-21T15:39:10.750Z,26.70
2019-01-21T15:44:17.299Z,27.40
2019-01-21T15:49:23.760Z,25.90
2019-01-21T15:54:52.450Z,27.07
2019-01-21T16:00:17.054Z,25.10
2019-01-21T16:05:29.613Z,26.80
2019-01-21T16:10:55.665Z,27.63
2019-01-21T16:16:14.003Z,28.20
2019-01-21T16:21:45.858Z,29.00
2019-01-21T16:27:00.966Z,28.30
2019-01-21T16:32:04.493Z,30.67
2019-01-21T16:37:20.031Z,30.97
2019-01-21T16:42:22.666Z,27.10
2019-01-21T16:47:26.643Z,27.73
2019-01-21T16:52:30.175Z,28.57
2019-01-21T16:57:33.621Z,27.87
2019-01-21T17:02:37.165Z,28.07
2019-01-21T17:07:40.736Z,28.83
2019-01-21T17:12:44.328Z,30.43
2019-01-21T17:17:47.776Z,29.40
2019-01-21T17:22:51.332Z,28.30
2019-01-21T17:27:54.762Z,27.90
2019-01-21T17:32:58.202Z,28.47
2019-01-21T17:38:01.668Z,27.67
2019-01-21T17:43:05.445Z,27.40
2019-01-21T17:48:08.907Z,27.80
2019-01-21T17:53:12.420Z,26.77
2019-01-21T17:58:16.091Z,28.50
2019-01-21T18:03:19.511Z,27.40
2019-01-21T18:08:22.952Z,27.40
2019-01-21T18:13:26.380Z,26.20
2019-01-21T18:18:29.891Z,25.90
2019-01-21T18:23:33.335Z,27.90
2019-01-21T18:28:36.805Z,25.37
2019-01-21T18:33:40.306Z,24.20
2019-01-21T18:38:43.879Z,25.70
2019-01-21T18:43:47.289Z,24.90
2019-01-21T18:48:51.550Z,26.57
2019-01-21T18:53:55.061Z,24.87
2019-01-21T18:58:58.652Z,24.20
2019-01-21T19:04:02.116Z,23.40
2019-01-21T19:09:07.597Z,27.90
2019-01-21T19:14:11.068Z,24.17
2019-01-21T19:19:14.509Z,23.40
2019-01-21T19:24:17.943Z,23.87
2019-01-21T19:29:21.366Z,22.53
2019-01-21T19:34:24.806Z,22.73
2019-01-21T19:39:28.243Z,23.50
2019-01-21T19:44:32.570Z,22.57
2019-01-21T19:49:35.997Z,26.03
2019-01-21T19:54:39.436Z,24.97
2019-01-21T19:59:42.913Z,23.13
2019-01-21T20:04:46.352Z,23.07
2019-01-21T20:09:49.775Z,21.77
2019-01-21T20:14:53.308Z,24.63
2019-01-21T20:19:56.742Z,23.37
2019-01-21T20:25:00.231Z,25.10
2019-01-21T20:30:05.547Z,26.47
2019-01-21T20:35:09.126Z,24.73
2019-01-21T20:40:18.701Z,31.83
2019-01-21T20:45:23.274Z,34.13
2019-01-21T20:50:31.594Z,31.53
2019-01-21T20:55:35.032Z,30.93
2019-01-21T21:00:38.477Z,31.03
2019-01-21T21:05:41.970Z,30.77
2019-01-21T21:10:45.475Z,28.63
2019-01-21T21:15:48.899Z,28.07
2019-01-21T21:20:52.335Z,28.47
2019-01-21T21:25:55.766Z,28.63
2019-01-21T21:30:59.206Z,28.57
2019-01-21T21:36:02.646Z,28.07
2019-01-21T21:41:06.066Z,29.07
2019-01-21T21:46:09.496Z,33.13
2019-01-21T21:51:12.920Z,34.27
2019-01-21T21:56:16.350Z,30.77
2019-01-21T22:01:23.929Z,30.87
2019-01-21T22:06:24.948Z,29.77
2019-01-21T22:11:28.370Z,32.40
2019-01-21T22:16:32.178Z,30.97
2019-01-21T22:21:35.617Z,33.53
2019-01-21T22:26:39.036Z,32.57
2019-01-21T22:31:42.479Z,30.60
2019-01-21T22:36:45.914Z,30.53
2019-01-21T22:41:49.352Z,33.17
2019-01-21T22:46:52.872Z,36.30
2019-01-21T22:51:56.291Z,36.03
2019-01-21T22:56:59.787Z,35.07
2019-01-21T23:02:03.333Z,36.43
2019-01-21T23:07:06.903Z,35.63
2019-01-21T23:12:10.321Z,34.33
2019-01-21T23:17:13.779Z,34.90
2019-01-21T23:22:17.391Z,34.13
2019-01-21T23:27:20.813Z,31.23
2019-01-21T23:32:24.271Z,33.10
2019-01-21T23:37:27.702Z,30.57
2019-01-21T23:42:31.141Z,31.33
2019-01-21T23:47:34.634Z,29.97
2019-01-21T23:52:38.067Z,32.43
2019-01-21T23:57:41.509Z,30.87
